Time;durP1;ratioP1;P1;durP2;ratioP2;P2;SDS_P1;SDS_P2;PMS_P1;PMS_P2;Temp;Humidity;BMP_temperature;BMP_pressure;BME280_temperature;BME280_humidity;BME280_pressure;Samples;Min_cycle;Max_cycle;Signal;HPM_P1;HPM_P2
2021/01/28 00:00:39;;;;;;;;;34.25;27.00;;;;;-0.22;72.72;100078.59;3725489;37;21352;-65
2021/01/28 00:03:08;;;;;;;;;33.25;29.50;;;;;-0.22;72.50;100087.44;3725597;37;21287;-66
2021/01/28 00:05:36;;;;;;;;;35.50;28.25;;;;;-0.19;73.14;100065.06;3725564;38;21258;-65
2021/01/28 00:08:03;;;;;;;;;30.00;26.25;;;;;-0.19;72.92;100075.69;3725663;37;21345;-67
2021/01/28 00:10:31;;;;;;;;;27.25;20.75;;;;;-0.32;72.77;100064.37;3725729;38;21307;-65
2021/01/28 00:12:58;;;;;;;;;38.00;32.25;;;;;-0.22;72.93;100073.28;3725627;37;21295;-65
2021/01/28 00:15:26;;;;;;;;;29.75;20.00;;;;;-0.19;73.02;100089.00;3725757;37;21323;-65
2021/01/28 00:17:53;;;;;;;;;37.50;28.00;;;;;-0.16;72.98;100086.91;3725605;38;21387;-66
2021/01/28 00:20:33;;;;;;;;;32.25;27.50;;;;;-0.14;72.88;100078.81;3725824;37;21301;-67
2021/01/28 00:23:00;;;;;;;;;39.50;31.00;;;;;-0.15;72.79;100091.28;3725840;38;21266;-66
2021/01/28 00:25:27;;;;;;;;;38.25;28.75;;;;;-0.15;72.72;100067.34;3725272;37;21269;-65
2021/01/28 00:27:54;;;;;;;;;32.75;28.75;;;;;-0.12;72.75;100071.56;3725728;38;21335;-64
2021/01/28 00:30:42;;;;;;;;;39.00;32.25;;;;;-0.32;72.60;100048.41;3725595;38;21284;-66
2021/01/28 00:33:09;;;;;;;;;35.00;28.50;;;;;-0.20;72.94;100068.69;3725664;37;21393;-64
2021/01/28 00:35:44;;;;;;;;;20.00;17.25;;;;;-0.32;72.74;100041.28;3725574;38;21340;-64
2021/01/28 00:38:17;;;;;;;;;25.75;23.00;;;;;-0.22;72.55;100060.00;3725563;37;21307;-63
2021/01/28 00:40:43;;;;;;;;;35.75;30.25;;;;;-0.11;72.46;100065.25;3725484;38;21441;-64
2021/01/28 00:43:10;;;;;;;;;17.50;10.00;;;;;-0.13;72.50;100088.50;3725456;37;21348;-62
2021/01/28 00:45:37;;;;;;;;;32.25;22.00;;;;;-0.11;72.34;100046.66;3725482;38;21283;-65
2021/01/28 00:48:04;;;;;;;;;33.50;26.00;;;;;-0.11;72.52;100055.47;3725171;37;21233;-64
2021/01/28 00:50:33;;;;;;;;;32.00;27.75;;;;;-0.14;72.40;100042.44;3725637;38;21246;-64
2021/01/28 00:52:59;;;;;;;;;31.75;26.50;;;;;-0.15;72.25;100048.72;3725510;37;21235;-66
2021/01/28 00:55:27;;;;;;;;;24.25;23.00;;;;;-0.26;72.03;100014.19;3725625;38;21301;-65
2021/01/28 00:57:54;;;;;;;;;25.75;17.75;;;;;-0.09;71.55;100044.72;3725208;38;21224;-67
2021/01/28 01:00:29;;;;;;;;;27.00;22.50;;;;;-0.06;71.36;100031.16;3725156;37;21285;-66
2021/01/28 01:02:57;;;;;;;;;35.50;27.50;;;;;-0.09;71.77;100026.09;3725162;38;21224;-64
2021/01/28 01:05:26;;;;;;;;;28.25;25.00;;;;;-0.09;71.30;100015.44;3725229;37;21225;-64
2021/01/28 01:07:53;;;;;;;;;31.25;26.00;;;;;-0.07;71.36;100001.03;3725747;38;21220;-66
2021/01/28 01:10:47;;;;;;;;;24.25;21.25;;;;;-0.06;71.46;100026.69;3725591;37;21210;-64
2021/01/28 01:13:25;;;;;;;;;30.00;26.50;;;;;-0.04;71.00;100023.87;3725664;37;21194;-66
2021/01/28 01:15:52;;;;;;;;;30.50;24.25;;;;;-0.04;71.36;99989.31;3725623;37;21206;-67
2021/01/28 01:18:21;;;;;;;;;25.50;22.25;;;;;-0.06;70.99;99984.13;3725656;37;21223;-67
2021/01/28 01:20:47;;;;;;;;;28.75;24.75;;;;;-0.03;70.96;99975.03;3725704;38;21145;-64
2021/01/28 01:23:14;;;;;;;;;17.00;14.75;;;;;-0.07;71.07;99981.59;3725696;37;21188;-66
2021/01/28 01:25:40;;;;;;;;;23.75;21.25;;;;;-0.21;71.10;99957.97;3725946;37;21153;-65
2021/01/28 01:28:06;;;;;;;;;24.50;21.75;;;;;-0.06;70.89;100002.75;3725367;38;21176;-64
2021/01/28 01:30:34;;;;;;;;;27.75;21.75;;;;;-0.08;70.43;99996.69;3725526;38;21242;-66
2021/01/28 01:33:01;;;;;;;;;19.75;17.50;;;;;-0.05;70.48;99984.97;3725873;37;21182;-65
2021/01/28 01:35:28;;;;;;;;;33.00;20.25;;;;;-0.07;70.92;99976.25;3725681;37;21157;-66
2021/01/28 01:37:56;;;;;;;;;18.00;17.00;;;;;-0.07;70.82;99976.25;3725617;37;21182;-64
2021/01/28 01:40:38;;;;;;;;;21.75;13.25;;;;;-0.05;70.77;99976.97;3725612;37;21153;-64
2021/01/28 01:43:06;;;;;;;;;25.75;23.00;;;;;-0.22;70.77;99953.63;3726187;37;21134;-65
2021/01/28 01:45:36;;;;;;;;;22.50;16.75;;;;;-0.14;70.37;99956.47;3725711;37;21148;-66
2021/01/28 01:48:36;;;;;;;;;26.50;23.50;;;;;-0.29;70.73;99933.84;3726180;38;21102;-66
2021/01/28 01:51:25;;;;;;;;;19.50;16.75;;;;;-0.18;70.99;99947.91;3727222;37;21142;-67
2021/01/28 01:54:16;;;;;;;;;24.00;20.75;;;;;-0.05;70.80;99966.34;3725823;37;21139;-67
2021/01/28 01:56:48;;;;;;;;;23.25;18.75;;;;;-0.07;70.39;99949.66;3725789;38;21091;-67
2021/01/28 01:59:21;;;;;;;;;24.50;23.25;;;;;-0.11;70.87;99951.75;3725897;37;21130;-67
2021/01/28 02:02:03;;;;;;;;;23.75;18.25;;;;;-0.11;70.73;99946.44;3725675;38;21127;-66
2021/01/28 02:04:32;;;;;;;;;14.75;14.75;;;;;-0.10;70.66;99971.22;3726001;38;21133;-66
2021/01/28 02:07:06;;;;;;;;;20.50;16.00;;;;;-0.11;70.77;99951.75;3725812;37;21134;-66
2021/01/28 02:09:32;;;;;;;;;24.25;12.25;;;;;-0.12;70.94;99955.37;3725900;37;21140;-66
2021/01/28 02:11:58;;;;;;;;;22.00;18.75;;;;;-0.09;70.72;99944.47;3725662;38;21151;-67
2021/01/28 02:14:27;;;;;;;;;26.75;21.75;;;;;-0.18;70.77;99939.09;3725847;38;21102;-67
2021/01/28 02:17:02;;;;;;;;;22.50;21.00;;;;;-0.13;70.90;99943.06;3725226;37;21117;-66
2021/01/28 02:20:17;;;;;;;;;25.75;22.50;;;;;-0.10;70.92;99957.91;3725615;38;21105;-66
2021/01/28 02:23:03;;;;;;;;;34.00;24.50;;;;;-0.10;70.75;99948.13;3725484;38;21112;-65
2021/01/28 02:25:34;;;;;;;;;24.25;20.25;;;;;-0.09;70.93;99940.97;3725398;37;21126;-66
2021/01/28 02:28:04;;;;;;;;;26.75;24.00;;;;;-0.07;70.69;99949.66;3725240;37;21080;-65
2021/01/28 02:30:33;;;;;;;;;21.00;17.25;;;;;-0.09;70.75;99948.97;3725590;37;21132;-66
2021/01/28 02:33:00;;;;;;;;;14.25;12.75;;;;;-0.10;70.78;99965.88;3725589;37;21097;-67
2021/01/28 02:35:29;;;;;;;;;18.50;14.25;;;;;-0.11;70.57;99999.63;3725895;37;21063;-66
2021/01/28 02:37:59;;;;;;;;;15.00;12.00;;;;;-0.11;70.67;99948.25;3725612;38;21070;-65
2021/01/28 02:40:28;;;;;;;;;24.50;22.25;;;;;-0.12;70.69;99967.84;3725374;37;21085;-65
2021/01/28 02:42:54;;;;;;;;;17.75;16.00;;;;;-0.11;70.73;99956.22;3725677;37;21087;-65
2021/01/28 02:45:35;;;;;;;;;24.50;20.00;;;;;-0.12;70.63;99981.13;3725641;37;21093;-66
2021/01/28 02:48:08;;;;;;;;;21.50;19.25;;;;;-0.12;70.93;99984.63;3725402;37;21073;-66
2021/01/28 02:50:34;;;;;;;;;26.00;21.25;;;;;-0.12;70.68;100007.72;3725737;37;21058;-66
2021/01/28 02:53:03;;;;;;;;;27.25;20.75;;;;;-0.10;70.41;99968.53;3725750;37;21078;-65
2021/01/28 02:55:31;;;;;;;;;20.25;14.25;;;;;-0.12;70.72;99951.88;3725866;37;21082;-65
2021/01/28 02:57:58;;;;;;;;;30.75;24.75;;;;;-0.12;70.67;99986.44;3725810;37;21061;-66
2021/01/28 03:00:35;;;;;;;;;17.00;15.75;;;;;-0.13;70.58;99963.47;3725820;38;21070;-66
2021/01/28 03:03:06;;;;;;;;;17.75;16.75;;;;;-0.11;70.85;99965.03;3725952;37;20827;-66
2021/01/28 03:05:33;;;;;;;;;23.75;16.00;;;;;-0.12;70.63;99989.09;3725812;37;21074;-67
2021/01/28 03:07:59;;;;;;;;;26.00;21.00;;;;;-0.16;70.68;99990.34;3725236;38;20996;-66
2021/01/28 03:10:26;;;;;;;;;14.75;13.00;;;;;-0.15;70.63;100007.97;3725600;37;21055;-65
2021/01/28 03:12:53;;;;;;;;;24.75;22.75;;;;;-0.11;70.92;100004.94;3725286;37;21044;-65
2021/01/28 03:15:26;;;;;;;;;26.75;18.00;;;;;-0.10;70.97;100008.44;3725488;37;21044;-64
2021/01/28 03:17:53;;;;;;;;;23.50;20.50;;;;;-0.25;71.22;99993.75;3725639;38;21030;-66
2021/01/28 03:20:22;;;;;;;;;16.00;15.00;;;;;-0.15;71.02;100018.62;3725517;37;21027;-66
2021/01/28 03:22:49;;;;;;;;;21.75;18.25;;;;;-0.24;71.01;99985.66;3725578;38;21009;-72
2021/01/28 03:25:18;;;;;;;;;24.00;17.75;;;;;-0.14;71.12;100018.50;3725815;38;21020;-64
2021/01/28 03:27:46;;;;;;;;;19.50;15.75;;;;;-0.15;71.31;99998.19;3725577;38;21006;-68
2021/01/28 03:30:18;;;;;;;;;21.75;15.00;;;;;-0.27;71.29;99987.72;3725563;37;20793;-65
2021/01/28 03:32:44;;;;;;;;;20.50;17.75;;;;;-0.17;71.10;99993.97;3725718;38;20957;-68
2021/01/28 03:35:11;;;;;;;;;26.00;22.25;;;;;-0.16;71.52;99998.31;3725663;37;21021;-68
2021/01/28 03:37:37;;;;;;;;;23.25;19.25;;;;;-0.17;71.43;99989.50;3725667;38;21014;-65
2021/01/28 03:40:06;;;;;;;;;32.50;26.25;;;;;-0.14;71.53;99993.72;3725542;38;20960;-67
2021/01/28 03:42:34;;;;;;;;;25.50;22.75;;;;;-0.15;71.32;99998.19;3725393;37;21019;-67
2021/01/28 03:45:01;;;;;;;;;28.00;19.00;;;;;-0.13;71.35;99996.25;3725170;38;21003;-68
2021/01/28 03:47:28;;;;;;;;;25.00;23.25;;;;;-0.19;71.31;100001.22;3726056;38;21062;-66
2021/01/28 03:49:57;;;;;;;;;17.75;13.75;;;;;-0.29;71.59;99966.59;3725902;38;21008;-65
2021/01/28 03:52:23;;;;;;;;;22.75;20.50;;;;;-0.11;71.68;99996.13;3725437;38;21024;-65
2021/01/28 03:54:49;;;;;;;;;35.00;28.00;;;;;-0.12;71.09;99995.28;3725801;37;21005;-65
2021/01/28 03:57:16;;;;;;;;;19.00;13.00;;;;;-0.28;71.38;99962.13;3725690;38;21016;-67
2021/01/28 03:59:42;;;;;;;;;17.50;13.00;;;;;-0.15;71.55;99989.38;3725789;38;20946;-65
2021/01/28 04:02:08;;;;;;;;;24.75;22.50;;;;;-0.16;71.51;99988.53;3725521;37;20955;-63
2021/01/28 04:04:35;;;;;;;;;28.25;24.00;;;;;-0.13;71.61;99990.09;3725475;38;21016;-65
2021/01/28 04:07:02;;;;;;;;;17.25;12.75;;;;;-0.13;71.37;99974.97;3725670;38;20993;-64
2021/01/28 04:09:29;;;;;;;;;24.75;20.25;;;;;-0.12;71.38;100013.03;3725759;37;20948;-64
2021/01/28 04:11:56;;;;;;;;;21.50;20.00;;;;;-0.20;71.50;99970.28;3725662;38;20984;-63
2021/01/28 04:14:23;;;;;;;;;24.25;21.25;;;;;-0.15;71.37;99984.03;3725234;37;21004;-65
2021/01/28 04:16:51;;;;;;;;;12.75;9.25;;;;;-0.12;71.38;99997.09;3725674;37;20985;-68
2021/01/28 04:19:18;;;;;;;;;24.00;18.75;;;;;-0.07;71.32;99989.56;3726570;38;20873;-68
2021/01/28 04:21:47;;;;;;;;;31.75;24.50;;;;;-0.08;71.17;99987.88;3725268;38;20967;-68
2021/01/28 04:24:13;;;;;;;;;33.25;24.25;;;;;-0.10;71.29;99992.47;3727154;37;20964;-68
2021/01/28 04:26:39;;;;;;;;;26.00;20.00;;;;;-0.09;71.39;100023.44;3725587;37;21015;-67
2021/01/28 04:29:06;;;;;;;;;26.50;21.75;;;;;-0.12;71.33;100024.53;3725763;38;21019;-66
2021/01/28 04:31:32;;;;;;;;;31.25;22.75;;;;;-0.10;71.23;100016.41;3725647;37;20960;-68
2021/01/28 04:33:59;;;;;;;;;34.75;25.75;;;;;-0.09;71.29;100023.44;3725742;37;20960;-64
2021/01/28 04:36:26;;;;;;;;;29.00;22.25;;;;;-0.11;71.49;100041.34;3725699;37;20950;-65
2021/01/28 04:38:53;;;;;;;;;26.75;22.50;;;;;-0.09;71.32;100015.44;3725705;38;20970;-65
2021/01/28 04:41:26;;;;;;;;;35.00;24.25;;;;;-0.19;71.69;100011.88;3725683;37;20960;-65
2021/01/28 04:43:55;;;;;;;;;27.50;22.00;;;;;-0.12;71.43;100018.38;3725667;38;20974;-67
2021/01/28 04:46:34;;;;;;;;;42.75;35.00;;;;;-0.09;71.46;100050.03;3725718;37;20905;-68
2021/01/28 04:49:03;;;;;;;;;30.75;27.00;;;;;-0.08;71.88;100033.09;3725897;37;20867;-69
2021/01/28 04:51:31;;;;;;;;;27.75;22.75;;;;;-0.04;71.61;100042.50;3725982;37;20924;-68
2021/01/28 04:54:13;;;;;;;;;24.50;19.50;;;;;-0.04;71.36;100031.88;3725820;38;20902;-68
2021/01/28 04:56:40;;;;;;;;;25.00;20.50;;;;;-0.11;71.37;100046.66;3725812;37;20893;-68
2021/01/28 04:59:10;;;;;;;;;21.00;17.25;;;;;-0.15;70.95;100024.78;3726030;38;20905;-66
2021/01/28 05:01:37;;;;;;;;;31.00;26.25;;;;;-0.15;71.28;100018.62;3725963;37;20880;-69
2021/01/28 05:04:10;;;;;;;;;19.50;16.75;;;;;-0.11;71.67;100036.84;3725520;38;20865;-65
2021/01/28 05:06:36;;;;;;;;;22.00;20.25;;;;;-0.09;71.87;100034.91;3725716;37;20915;-65
2021/01/28 05:09:04;;;;;;;;;25.75;22.00;;;;;-0.44;71.81;99992.63;3725553;37;20872;-66
2021/01/28 05:11:33;;;;;;;;;32.50;26.50;;;;;-0.19;71.94;100019.84;3725635;38;20854;-65
2021/01/28 05:14:30;;;;;;;;;32.00;28.75;;;;;-0.23;71.90;100018.41;3725608;38;20888;-65
2021/01/28 05:17:05;;;;;;;;;24.50;22.00;;;;;-0.11;72.29;100030.69;3725728;38;20844;-64
2021/01/28 05:20:00;;;;;;;;;30.25;22.50;;;;;-0.47;71.93;99987.56;3725744;38;20888;-65
2021/01/28 05:22:33;;;;;;;;;24.50;24.00;;;;;-0.10;72.40;100035.88;3725861;37;20847;-65
2021/01/28 05:25:14;;;;;;;;;33.75;30.00;;;;;-0.08;71.95;100043.72;3725838;37;20811;-66
2021/01/28 05:27:41;;;;;;;;;32.50;24.50;;;;;-0.27;72.30;100009.00;3725802;38;20851;-65
2021/01/28 05:30:13;;;;;;;;;31.25;27.25;;;;;-0.09;72.09;100036.72;3725938;37;20864;-65
2021/01/28 05:32:48;;;;;;;;;24.75;22.50;;;;;-0.13;72.21;100040.63;3725880;37;20865;-64
2021/01/28 05:35:40;;;;;;;;;34.00;24.25;;;;;-0.97;72.43;99905.91;3725771;37;21121;-66
2021/01/28 05:38:28;;;;;;;;;30.75;26.50;;;;;-0.08;72.37;100052.56;3725736;38;20855;-67
2021/01/28 05:40:59;;;;;;;;;20.50;18.50;;;;;-0.11;72.52;100044.84;3725736;38;20863;-66
2021/01/28 05:43:52;;;;;;;;;21.00;17.50;;;;;-0.08;72.75;100078.31;3725941;37;20835;-64
2021/01/28 05:46:29;;;;;;;;;27.50;25.25;;;;;-0.32;72.65;100038.62;3725721;37;20822;-65
2021/01/28 05:49:11;;;;;;;;;35.00;29.00;;;;;-0.13;73.00;100060.06;3725589;38;20842;-66
2021/01/28 05:51:41;;;;;;;;;38.00;28.00;;;;;-0.15;73.04;100055.84;3725665;37;20651;-64
2021/01/28 05:54:20;;;;;;;;;30.50;25.50;;;;;-0.12;72.86;100060.91;3726116;37;20854;-64
2021/01/28 05:57:18;;;;;;;;;21.75;19.50;;;;;-0.11;72.86;100070.59;3725683;38;20880;-66
2021/01/28 06:00:03;;;;;;;;;23.25;17.75;;;;;-0.11;72.87;100074.09;3726009;37;20801;-68
2021/01/28 06:02:52;;;;;;;;;39.75;27.75;;;;;-0.15;73.04;100070.00;3725897;38;20811;-64
2021/01/28 06:05:56;;;;;;;;;25.00;23.25;;;;;-0.12;72.92;100067.09;3725574;37;20844;-65
2021/01/28 06:08:49;;;;;;;;;30.75;23.75;;;;;-0.07;73.07;100082.66;3726020;37;20804;-65
2021/01/28 06:11:59;;;;;;;;;31.50;24.00;;;;;-0.06;72.67;100079.03;3725817;37;20795;-66
2021/01/28 06:15:04;;;;;;;;;27.75;24.25;;;;;-0.23;72.90;100039.69;3725586;37;20808;-68
2021/01/28 06:17:48;;;;;;;;;26.00;20.75;;;;;-0.25;72.50;100060.25;3725938;37;20811;-67
2021/01/28 06:21:11;;;;;;;;;25.25;19.75;;;;;-0.15;72.90;100069.16;3725952;37;20799;-66
2021/01/28 06:24:03;;;;;;;;;29.50;24.00;;;;;-0.14;73.15;100069.03;3725893;38;20774;-68
2021/01/28 06:26:47;;;;;;;;;32.00;23.25;;;;;-0.13;73.07;100080.50;3726249;38;20818;-67
2021/01/28 06:29:39;;;;;;;;;35.25;30.25;;;;;-0.16;73.11;100088.75;3726181;37;20793;-68
2021/01/28 06:32:34;;;;;;;;;33.75;24.25;;;;;-0.17;73.61;100068.44;3726302;37;20788;-66
2021/01/28 06:35:59;;;;;;;;;42.25;33.25;;;;;-0.38;73.92;100052.44;3726128;37;20832;-66
2021/01/28 06:39:01;;;;;;;;;33.75;25.50;;;;;-0.18;73.29;100093.34;3727051;38;20841;-66
2021/01/28 06:41:32;;;;;;;;;39.50;28.75;;;;;-0.20;73.58;100064.22;3726349;38;20726;-66
2021/01/28 06:44:25;;;;;;;;;27.25;23.25;;;;;-0.18;73.59;100078.22;3726057;38;20785;-67
2021/01/28 06:47:24;;;;;;;;;31.50;27.00;;;;;-0.30;73.56;100039.34;3725567;38;21744;-67
2021/01/28 06:50:17;;;;;;;;;38.00;28.25;;;;;-0.44;73.54;100021.88;3724821;37;21728;-66
2021/01/28 06:53:18;;;;;;;;;29.25;24.75;;;;;-0.12;73.35;100063.56;3726794;38;20807;-68
2021/01/28 06:56:09;;;;;;;;;30.00;21.25;;;;;-0.46;73.13;100018.50;3726748;37;20762;-66
2021/01/28 06:59:07;;;;;;;;;16.75;11.50;;;;;-0.13;73.02;100064.53;3727547;37;21786;-64
2021/01/28 07:02:08;;;;;;;;;31.75;24.75;;;;;-0.11;73.70;100065.25;3726488;37;21668;-64
2021/01/28 07:05:08;;;;;;;;;34.50;27.75;;;;;-0.14;73.22;100066.38;3725591;38;20753;-67
2021/01/28 07:07:49;;;;;;;;;26.50;23.75;;;;;-0.23;73.21;100058.31;3724684;38;21745;-66
2021/01/28 07:10:24;;;;;;;;;39.75;33.50;;;;;-0.11;73.30;100075.91;3725532;38;21790;-69
2021/01/28 07:12:53;;;;;;;;;25.25;21.25;;;;;-0.10;73.55;100059.81;3725880;37;21752;-69
2021/01/28 07:15:21;;;;;;;;;16.75;13.25;;;;;-0.11;73.28;100073.25;3725958;38;21719;-67
2021/01/28 07:17:55;;;;;;;;;32.50;25.75;;;;;-0.08;73.29;100057.87;3725749;37;21720;-69
2021/01/28 07:20:38;;;;;;;;;29.25;24.00;;;;;-0.22;73.33;100046.69;3726389;37;21708;-70
2021/01/28 07:23:33;;;;;;;;;36.25;19.75;;;;;-0.04;73.61;100069.94;3726247;37;21712;-79
2021/01/28 07:26:18;;;;;;;;;28.00;24.50;;;;;-0.35;73.04;100012.31;3725723;37;21549;-71
2021/01/28 07:28:47;;;;;;;;;29.00;24.75;;;;;-0.07;73.07;100054.25;3726519;38;21705;-68
2021/01/28 07:31:44;;;;;;;;;24.00;21.00;;;;;-0.35;73.27;100033.56;3726178;37;21720;-69
2021/01/28 07:34:14;;;;;;;;;33.25;24.75;;;;;-0.03;73.22;100065.47;3726114;37;21697;-67
2021/01/28 07:36:52;;;;;;;;;29.25;23.75;;;;;-0.08;72.90;100046.41;3726437;37;21704;-66
2021/01/28 07:39:37;;;;;;;;;21.50;17.50;;;;;0.04;73.21;100071.09;3728424;37;21672;-75
2021/01/28 07:42:27;;;;;;;;;33.00;25.00;;;;;-0.04;72.80;100050.50;3730981;37;21699;-74
2021/01/28 07:44:59;;;;;;;;;26.25;18.50;;;;;0.12;72.30;100089.94;3730269;38;21732;-77
2021/01/28 07:47:47;;;;;;;;;24.50;21.75;;;;;0.14;72.02;100091.50;3729716;37;21667;-77
2021/01/28 07:50:32;;;;;;;;;25.00;20.25;;;;;0.08;72.29;100056.56;3728349;37;21687;-78
2021/01/28 07:53:29;;;;;;;;;39.00;30.00;;;;;0.19;72.35;100068.00;3728504;38;21657;-79
2021/01/28 07:55:56;;;;;;;;;29.75;25.75;;;;;0.18;71.94;100060.16;3729553;37;21791;-77
2021/01/28 07:58:34;;;;;;;;;26.75;20.50;;;;;0.20;71.58;100101.63;3729793;37;21697;-77
2021/01/28 08:01:12;;;;;;;;;24.50;19.50;;;;;0.23;71.19;100076.56;3727140;37;21681;-78
2021/01/28 08:04:15;;;;;;;;;24.75;23.25;;;;;0.08;71.16;100044.09;3728909;38;21666;-79
2021/01/28 08:06:41;;;;;;;;;25.00;22.00;;;;;0.20;70.83;100083.00;3727570;37;21662;-79
2021/01/28 08:09:11;;;;;;;;;31.75;22.00;;;;;0.21;70.53;100068.72;3727287;37;21639;-77
2021/01/28 08:11:38;;;;;;;;;25.50;22.00;;;;;0.19;70.76;100083.12;3727802;38;21651;-78
2021/01/28 08:14:10;;;;;;;;;36.25;30.50;;;;;0.26;70.56;100078.97;3726512;37;21644;-78
2021/01/28 08:16:37;;;;;;;;;23.75;19.25;;;;;0.25;70.31;100066.63;3728856;37;21662;-81
2021/01/28 08:19:09;;;;;;;;;21.75;13.25;;;;;0.27;71.18;100064.69;3729521;38;21636;-83
2021/01/28 08:21:36;;;;;;;;;33.75;24.00;;;;;0.25;70.85;100090.59;3733290;38;21601;-81
2021/01/28 08:24:34;;;;;;;;;22.25;21.75;;;;;0.34;70.14;100081.84;3734869;37;21696;-82
2021/01/28 08:27:38;;;;;;;;;36.25;26.75;;;;;0.19;69.82;100038.72;3731588;37;21620;-82
2021/01/28 08:30:15;;;;;;;;;32.50;28.00;;;;;0.46;69.81;100095.91;3733724;37;21641;-71
2021/01/28 08:32:53;;;;;;;;;33.25;27.75;;;;;0.29;69.29;100058.25;3726186;38;21614;-66
2021/01/28 08:35:37;;;;;;;;;26.00;21.25;;;;;0.36;69.41;100082.53;3727848;37;21620;-74
2021/01/28 08:38:13;;;;;;;;;30.00;26.25;;;;;0.41;69.76;100079.50;3726051;37;21607;-76
2021/01/28 08:40:41;;;;;;;;;34.50;29.25;;;;;0.32;69.37;100089.94;3726694;37;21626;-76
2021/01/28 08:43:19;;;;;;;;;32.25;29.75;;;;;0.40;68.88;100094.63;3726889;37;21606;-75
2021/01/28 08:45:46;;;;;;;;;30.50;24.25;;;;;0.48;68.50;100086.00;3726597;38;21632;-74
2021/01/28 08:48:15;;;;;;;;;28.75;22.00;;;;;0.42;69.04;100071.37;3726479;37;21626;-74
2021/01/28 08:50:43;;;;;;;;;34.25;28.25;;;;;0.55;68.60;100081.78;3726366;38;21599;-71
2021/01/28 08:53:20;;;;;;;;;30.25;27.25;;;;;0.65;68.63;100086.22;3726216;37;21604;-74
2021/01/28 08:55:47;;;;;;;;;33.00;26.50;;;;;0.66;67.87;100084.37;3726446;38;21600;-74
2021/01/28 08:58:23;;;;;;;;;33.25;22.75;;;;;0.68;67.66;100101.06;3726627;38;21590;-75
2021/01/28 09:00:57;;;;;;;;;25.75;22.75;;;;;0.59;67.23;100132.00;3727116;38;21631;-73
2021/01/28 09:03:31;;;;;;;;;25.25;22.50;;;;;0.59;67.12;100099.19;3727066;38;21577;-73
2021/01/28 09:06:03;;;;;;;;;29.25;26.25;;;;;0.61;66.93;100095.44;3729095;37;21579;-72
2021/01/28 09:08:41;;;;;;;;;28.50;25.25;;;;;0.71;67.30;100079.50;3732276;38;21586;-74
2021/01/28 09:11:24;;;;;;;;;24.75;21.75;;;;;0.54;66.56;100057.00;3728054;38;21544;-75
2021/01/28 09:14:35;;;;;;;;;29.00;23.25;;;;;0.65;66.04;100082.69;3726749;37;21559;-74
2021/01/28 09:17:28;;;;;;;;;31.75;26.25;;;;;0.83;66.06;100090.94;3726282;38;21587;-71
2021/01/28 09:20:01;;;;;;;;;22.50;18.00;;;;;0.70;65.50;100059.19;3726185;37;21561;-72
2021/01/28 09:22:40;;;;;;;;;27.00;16.50;;;;;0.87;65.55;100071.88;3725227;38;21570;-73
2021/01/28 09:25:24;;;;;;;;;23.75;21.25;;;;;0.87;65.70;100087.87;3726086;37;21565;-72
2021/01/28 09:28:05;;;;;;;;;22.75;18.50;;;;;0.78;65.69;100069.16;3726345;38;21549;-75
2021/01/28 09:30:38;;;;;;;;;26.75;24.00;;;;;0.92;65.59;100063.50;3726436;37;21559;-74
2021/01/28 09:33:36;;;;;;;;;22.00;18.50;;;;;0.89;65.12;100091.25;3726439;38;21556;-72
2021/01/28 09:36:39;;;;;;;;;18.00;17.25;;;;;0.88;64.99;100059.41;3726599;37;21532;-75
2021/01/28 09:39:20;;;;;;;;;25.75;22.00;;;;;0.95;64.54;100056.06;3726701;38;21522;-75
2021/01/28 09:41:50;;;;;;;;;30.75;28.00;;;;;1.02;64.55;100052.88;3726786;38;21533;-73
2021/01/28 09:44:52;;;;;;;;;22.75;19.25;;;;;1.10;64.87;100047.69;3726700;38;21629;-80
2021/01/28 09:47:38;;;;;;;;;28.50;23.25;;;;;1.16;64.93;100036.47;3726940;37;21489;-73
2021/01/28 09:50:10;;;;;;;;;30.25;22.50;;;;;1.14;64.53;100044.63;3726863;38;21600;-74
2021/01/28 09:52:44;;;;;;;;;30.50;28.00;;;;;0.97;64.22;100045.28;3727373;38;21538;-74
2021/01/28 09:55:17;;;;;;;;;36.75;27.00;;;;;0.94;64.52;100034.91;3727291;37;21620;-76
2021/01/28 09:57:43;;;;;;;;;24.00;21.75;;;;;1.12;64.53;100067.03;3727025;38;21581;-77
2021/01/28 10:00:13;;;;;;;;;25.00;19.75;;;;;1.15;64.63;100056.12;3726810;37;21522;-74
2021/01/28 10:03:05;;;;;;;;;27.25;24.00;;;;;1.01;64.42;100027.22;3726758;37;21525;-75
2021/01/28 10:05:33;;;;;;;;;30.75;24.50;;;;;1.01;65.05;100029.88;3726487;37;21534;-76
2021/01/28 10:08:01;;;;;;;;;35.00;28.50;;;;;1.16;64.11;100055.13;3726230;37;21466;-74
2021/01/28 10:10:31;;;;;;;;;21.25;19.25;;;;;1.18;63.93;100055.84;3726389;37;21507;-77
2021/01/28 10:13:05;;;;;;;;;39.25;28.75;;;;;1.19;63.97;100041.53;3726061;38;21525;-77
2021/01/28 10:15:34;;;;;;;;;27.75;22.50;;;;;1.22;63.86;100054.59;3726680;38;21513;-78
2021/01/28 10:18:02;;;;;;;;;20.50;17.75;;;;;1.13;63.39;100066.06;3726633;38;21492;-77
2021/01/28 10:20:29;;;;;;;;;28.00;22.75;;;;;1.07;63.66;100035.47;3727837;38;21453;-75
2021/01/28 10:23:02;;;;;;;;;31.00;22.75;;;;;1.27;63.43;100079.03;3726769;37;21477;-79
2021/01/28 10:25:29;;;;;;;;;19.25;18.50;;;;;1.09;63.63;100056.66;3727786;37;21523;-77
2021/01/28 10:27:55;;;;;;;;;26.75;24.00;;;;;0.84;63.27;100002.87;3727252;38;21476;-73
2021/01/28 10:30:23;;;;;;;;;23.75;20.00;;;;;1.07;63.69;100058.59;3727552;37;21478;-76
2021/01/28 10:32:51;;;;;;;;;20.50;14.00;;;;;1.09;63.82;100056.66;3726624;37;21482;-71
2021/01/28 10:35:21;;;;;;;;;25.50;23.00;;;;;1.07;63.57;100061.28;3725869;38;21461;-70
2021/01/28 10:37:48;;;;;;;;;20.50;17.25;;;;;0.90;63.77;100013.00;3726604;37;21489;-74
2021/01/28 10:40:15;;;;;;;;;22.25;20.75;;;;;1.09;64.02;100057.50;3726892;38;21467;-71
2021/01/28 10:42:44;;;;;;;;;25.00;20.25;;;;;1.21;63.64;100060.91;3726725;38;21459;-72
2021/01/28 10:45:19;;;;;;;;;20.75;17.00;;;;;1.15;63.74;100048.13;3726606;38;21431;-72
2021/01/28 10:47:46;;;;;;;;;34.75;27.00;;;;;1.09;64.10;100070.81;3726883;38;21460;-72
2021/01/28 10:50:14;;;;;;;;;26.50;23.75;;;;;1.09;64.90;100069.97;3727634;38;21442;-66
2021/01/28 10:52:40;;;;;;;;;21.25;17.75;;;;;1.07;64.37;100078.09;3726838;37;21453;-75
2021/01/28 10:55:09;;;;;;;;;27.25;25.00;;;;;1.07;63.79;100045.28;3727052;37;21371;-76
2021/01/28 10:57:35;;;;;;;;;23.25;20.00;;;;;1.18;64.13;100062.03;3726800;37;21452;-73
2021/01/28 11:00:04;;;;;;;;;25.00;23.50;;;;;1.21;63.78;100059.09;3726734;37;21429;-75
2021/01/28 11:02:31;;;;;;;;;24.00;16.50;;;;;1.04;63.42;100077.56;3726537;37;21465;-74
2021/01/28 11:04:58;;;;;;;;;20.50;19.00;;;;;1.04;63.38;100053.59;3726901;37;21449;-74
2021/01/28 11:07:24;;;;;;;;;25.00;19.50;;;;;1.22;64.19;100062.59;3726498;37;21418;-73
2021/01/28 11:09:51;;;;;;;;;27.75;24.00;;;;;1.23;64.22;100061.63;3726599;37;21414;-75
2021/01/28 11:12:18;;;;;;;;;18.25;16.25;;;;;0.84;64.29;100045.50;3726447;37;21484;-73
2021/01/28 11:14:47;;;;;;;;;22.25;19.75;;;;;1.02;64.68;100103.50;3726886;37;21352;-78
2021/01/28 11:17:20;;;;;;;;;16.25;14.50;;;;;0.95;65.05;100098.69;3726613;38;21402;-74
2021/01/28 11:19:46;;;;;;;;;23.00;15.50;;;;;0.75;65.23;100019.69;3725884;37;21407;-74
2021/01/28 11:22:12;;;;;;;;;23.50;22.25;;;;;0.68;65.43;100002.53;3727169;37;21397;-75
2021/01/28 11:24:38;;;;;;;;;21.50;18.25;;;;;1.06;65.17;100056.94;3727160;38;21393;-73
2021/01/28 11:27:05;;;;;;;;;24.00;19.50;;;;;1.19;64.52;100044.22;3727224;38;21383;-74
2021/01/28 11:29:31;;;;;;;;;21.00;19.75;;;;;1.24;64.59;100056.16;3726975;38;21370;-76
2021/01/28 11:31:57;;;;;;;;;19.25;15.00;;;;;1.16;64.00;100023.16;3726863;38;21360;-77
2021/01/28 11:34:27;;;;;;;;;16.75;14.25;;;;;1.23;64.24;100029.63;3727330;37;21371;-78
2021/01/28 11:36:54;;;;;;;;;18.50;16.25;;;;;1.00;63.21;100010.37;3726822;37;21370;-78
2021/01/28 11:39:23;;;;;;;;;23.75;15.75;;;;;0.94;61.46;99989.59;3727633;37;21367;-78
2021/01/28 11:41:50;;;;;;;;;18.00;14.00;;;;;1.44;60.16;100043.72;3727404;38;21349;-77
2021/01/28 11:44:16;;;;;;;;;18.75;15.00;;;;;1.55;59.63;100040.91;3727061;37;21366;-78
2021/01/28 11:46:42;;;;;;;;;18.00;15.00;;;;;1.82;59.88;100036.69;3727552;37;21354;-77
2021/01/28 11:49:09;;;;;;;;;24.25;17.25;;;;;1.73;58.58;100026.87;3726640;37;21373;-79